sensor_id;sensor_type;location;lat;lon;timestamp;P1;durP1;ratioP1;P2;durP2;ratioP2
71351;SDS011;59159;51.652;4.864;2023-03-21T00:02:13;5.18;;;1.48;;
71351;SDS011;59159;51.652;4.864;2023-03-21T00:04:40;4.28;;;1.17;;
71351;SDS011;59159;51.652;4.864;2023-03-21T00:07:06;6.50;;;1.63;;
71351;SDS011;59159;51.652;4.864;2023-03-21T00:09:33;7.00;;;1.60;;
71351;SDS011;59159;51.652;4.864;2023-03-21T00:11:59;4.45;;;1.55;;
71351;SDS011;59159;51.652;4.864;2023-03-21T00:14:26;4.95;;;1.90;;
71351;SDS011;59159;51.652;4.864;2023-03-21T00:16:55;4.63;;;1.50;;
71351;SDS011;59159;51.652;4.864;2023-03-21T00:19:21;6.88;;;1.70;;
71351;SDS011;59159;51.652;4.864;2023-03-21T00:21:48;4.72;;;1.50;;
71351;SDS011;59159;51.652;4.864;2023-03-21T00:24:16;5.20;;;1.50;;
71351;SDS011;59159;51.652;4.864;2023-03-21T00:26:42;5.05;;;1.80;;
71351;SDS011;59159;51.652;4.864;2023-03-21T00:29:08;4.90;;;1.60;;
71351;SDS011;59159;51.652;4.864;2023-03-21T00:31:34;5.30;;;2.20;;
71351;SDS011;59159;51.652;4.864;2023-03-21T00:34:00;6.10;;;1.60;;
71351;SDS011;59159;51.652;4.864;2023-03-21T00:36:26;5.25;;;1.70;;
71351;SDS011;59159;51.652;4.864;2023-03-21T00:38:53;8.10;;;1.90;;
71351;SDS011;59159;51.652;4.864;2023-03-21T00:41:19;5.53;;;1.80;;
71351;SDS011;59159;51.652;4.864;2023-03-21T00:43:45;4.30;;;1.50;;
71351;SDS011;59159;51.652;4.864;2023-03-21T00:46:11;4.45;;;1.50;;
71351;SDS011;59159;51.652;4.864;2023-03-21T00:48:37;5.40;;;1.70;;
71351;SDS011;59159;51.652;4.864;2023-03-21T00:51:09;5.68;;;1.77;;
71351;SDS011;59159;51.652;4.864;2023-03-21T00:53:36;5.75;;;1.80;;
71351;SDS011;59159;51.652;4.864;2023-03-21T00:56:02;5.00;;;1.70;;
71351;SDS011;59159;51.652;4.864;2023-03-21T00:58:28;4.85;;;1.42;;
71351;SDS011;59159;51.652;4.864;2023-03-21T01:00:54;5.82;;;1.63;;
71351;SDS011;59159;51.652;4.864;2023-03-21T01:03:21;6.28;;;1.75;;
71351;SDS011;59159;51.652;4.864;2023-03-21T01:05:50;5.53;;;1.67;;
71351;SDS011;59159;51.652;4.864;2023-03-21T01:08:28;5.88;;;2.13;;
71351;SDS011;59159;51.652;4.864;2023-03-21T01:10:55;5.93;;;1.80;;
71351;SDS011;59159;51.652;4.864;2023-03-21T01:13:22;8.27;;;2.33;;
71351;SDS011;59159;51.652;4.864;2023-03-21T01:15:50;5.95;;;1.80;;
71351;SDS011;59159;51.652;4.864;2023-03-21T01:18:18;4.53;;;1.63;;
71351;SDS011;59159;51.652;4.864;2023-03-21T01:20:46;6.13;;;1.80;;
71351;SDS011;59159;51.652;4.864;2023-03-21T01:23:12;5.50;;;1.80;;
71351;SDS011;59159;51.652;4.864;2023-03-21T01:25:41;7.35;;;2.47;;
71351;SDS011;59159;51.652;4.864;2023-03-21T01:28:07;6.82;;;2.15;;
71351;SDS011;59159;51.652;4.864;2023-03-21T01:30:34;6.60;;;1.90;;
71351;SDS011;59159;51.652;4.864;2023-03-21T01:33:00;6.15;;;1.83;;
71351;SDS011;59159;51.652;4.864;2023-03-21T01:35:26;5.50;;;1.98;;
71351;SDS011;59159;51.652;4.864;2023-03-21T01:37:53;5.60;;;1.80;;
71351;SDS011;59159;51.652;4.864;2023-03-21T01:40:20;6.38;;;2.00;;
71351;SDS011;59159;51.652;4.864;2023-03-21T01:42:46;4.57;;;1.77;;
71351;SDS011;59159;51.652;4.864;2023-03-21T01:47:57;6.07;;;1.90;;
71351;SDS011;59159;51.652;4.864;2023-03-21T01:50:23;6.20;;;1.80;;
71351;SDS011;59159;51.652;4.864;2023-03-21T01:52:50;5.00;;;1.90;;
71351;SDS011;59159;51.652;4.864;2023-03-21T01:55:16;5.37;;;1.87;;
71351;SDS011;59159;51.652;4.864;2023-03-21T01:57:50;6.38;;;2.00;;
71351;SDS011;59159;51.652;4.864;2023-03-21T02:00:17;5.55;;;1.83;;
71351;SDS011;59159;51.652;4.864;2023-03-21T02:02:45;5.50;;;1.63;;
71351;SDS011;59159;51.652;4.864;2023-03-21T02:05:25;5.90;;;2.08;;
71351;SDS011;59159;51.652;4.864;2023-03-21T02:07:53;4.85;;;1.70;;
71351;SDS011;59159;51.652;4.864;2023-03-21T02:10:20;5.27;;;1.70;;
71351;SDS011;59159;51.652;4.864;2023-03-21T02:12:46;5.60;;;1.60;;
71351;SDS011;59159;51.652;4.864;2023-03-21T02:15:12;6.72;;;1.80;;
71351;SDS011;59159;51.652;4.864;2023-03-21T02:27:58;5.10;;;1.40;;
71351;SDS011;59159;51.652;4.864;2023-03-21T02:43:56;5.90;;;1.95;;
71351;SDS011;59159;51.652;4.864;2023-03-21T02:46:29;6.23;;;1.80;;
71351;SDS011;59159;51.652;4.864;2023-03-21T02:51:30;4.72;;;1.60;;
71351;SDS011;59159;51.652;4.864;2023-03-21T02:54:00;5.67;;;1.70;;
71351;SDS011;59159;51.652;4.864;2023-03-21T02:56:26;5.00;;;1.80;;
71351;SDS011;59159;51.652;4.864;2023-03-21T02:58:52;6.38;;;1.50;;
71351;SDS011;59159;51.652;4.864;2023-03-21T03:01:19;4.10;;;1.40;;
71351;SDS011;59159;51.652;4.864;2023-03-21T03:03:45;4.65;;;1.50;;
71351;SDS011;59159;51.652;4.864;2023-03-21T03:06:16;6.43;;;1.70;;
71351;SDS011;59159;51.652;4.864;2023-03-21T03:11:28;5.27;;;1.57;;
71351;SDS011;59159;51.652;4.864;2023-03-21T03:16:44;5.03;;;1.35;;
71351;SDS011;59159;51.652;4.864;2023-03-21T03:19:17;5.40;;;1.90;;
71351;SDS011;59159;51.652;4.864;2023-03-21T03:21:50;5.63;;;1.67;;
71351;SDS011;59159;51.652;4.864;2023-03-21T03:24:23;6.43;;;2.45;;
71351;SDS011;59159;51.652;4.864;2023-03-21T03:26:56;4.43;;;1.40;;
71351;SDS011;59159;51.652;4.864;2023-03-21T03:29:24;4.82;;;1.42;;
71351;SDS011;59159;51.652;4.864;2023-03-21T03:31:52;4.78;;;1.65;;
71351;SDS011;59159;51.652;4.864;2023-03-21T03:34:23;5.38;;;1.70;;
71351;SDS011;59159;51.652;4.864;2023-03-21T03:36:50;5.47;;;1.47;;
71351;SDS011;59159;51.652;4.864;2023-03-21T03:39:20;4.22;;;1.40;;
71351;SDS011;59159;51.652;4.864;2023-03-21T03:41:52;4.78;;;1.35;;
71351;SDS011;59159;51.652;4.864;2023-03-21T03:44:20;5.87;;;1.30;;
71351;SDS011;59159;51.652;4.864;2023-03-21T03:47:00;4.38;;;1.23;;
71351;SDS011;59159;51.652;4.864;2023-03-21T03:49:32;4.25;;;1.25;;
71351;SDS011;59159;51.652;4.864;2023-03-21T03:52:03;5.30;;;1.50;;
71351;SDS011;59159;51.652;4.864;2023-03-21T03:54:32;4.22;;;1.30;;
71351;SDS011;59159;51.652;4.864;2023-03-21T03:57:02;6.32;;;1.63;;
71351;SDS011;59159;51.652;4.864;2023-03-21T03:59:28;5.85;;;1.40;;
71351;SDS011;59159;51.652;4.864;2023-03-21T04:01:54;5.67;;;1.40;;
71351;SDS011;59159;51.652;4.864;2023-03-21T04:04:20;4.03;;;1.40;;
71351;SDS011;59159;51.652;4.864;2023-03-21T04:06:47;5.85;;;1.40;;
71351;SDS011;59159;51.652;4.864;2023-03-21T04:09:17;5.47;;;1.83;;
71351;SDS011;59159;51.652;4.864;2023-03-21T04:11:43;5.80;;;1.73;;
71351;SDS011;59159;51.652;4.864;2023-03-21T04:14:10;5.95;;;1.40;;
71351;SDS011;59159;51.652;4.864;2023-03-21T04:16:36;4.80;;;1.40;;
71351;SDS011;59159;51.652;4.864;2023-03-21T04:19:02;4.88;;;1.42;;
71351;SDS011;59159;51.652;4.864;2023-03-21T04:21:28;4.78;;;1.30;;
71351;SDS011;59159;51.652;4.864;2023-03-21T04:23:55;5.80;;;1.60;;
71351;SDS011;59159;51.652;4.864;2023-03-21T04:26:21;5.17;;;1.27;;
71351;SDS011;59159;51.652;4.864;2023-03-21T04:28:48;4.20;;;1.30;;
71351;SDS011;59159;51.652;4.864;2023-03-21T04:33:50;4.93;;;1.50;;
71351;SDS011;59159;51.652;4.864;2023-03-21T04:36:16;4.32;;;1.40;;
71351;SDS011;59159;51.652;4.864;2023-03-21T04:38:51;5.88;;;1.45;;
71351;SDS011;59159;51.652;4.864;2023-03-21T04:41:17;5.33;;;1.60;;
71351;SDS011;59159;51.652;4.864;2023-03-21T04:43:43;4.85;;;1.70;;
71351;SDS011;59159;51.652;4.864;2023-03-21T04:46:09;4.85;;;1.42;;
71351;SDS011;59159;51.652;4.864;2023-03-21T04:48:35;4.78;;;1.40;;
71351;SDS011;59159;51.652;4.864;2023-03-21T04:51:01;7.07;;;1.90;;
71351;SDS011;59159;51.652;4.864;2023-03-21T04:53:28;5.18;;;1.70;;
71351;SDS011;59159;51.652;4.864;2023-03-21T04:55:55;4.65;;;1.35;;
71351;SDS011;59159;51.652;4.864;2023-03-21T04:58:21;4.73;;;1.30;;
71351;SDS011;59159;51.652;4.864;2023-03-21T05:00:48;5.35;;;1.60;;
71351;SDS011;59159;51.652;4.864;2023-03-21T05:03:16;5.85;;;1.55;;
71351;SDS011;59159;51.652;4.864;2023-03-21T05:05:43;5.90;;;2.10;;
71351;SDS011;59159;51.652;4.864;2023-03-21T05:08:09;6.85;;;2.17;;
71351;SDS011;59159;51.652;4.864;2023-03-21T05:10:36;8.07;;;2.25;;
71351;SDS011;59159;51.652;4.864;2023-03-21T05:13:02;6.47;;;1.85;;
71351;SDS011;59159;51.652;4.864;2023-03-21T05:15:28;5.97;;;1.90;;
71351;SDS011;59159;51.652;4.864;2023-03-21T05:17:54;6.40;;;2.13;;
71351;SDS011;59159;51.652;4.864;2023-03-21T05:20:23;8.23;;;1.60;;
71351;SDS011;59159;51.652;4.864;2023-03-21T05:22:49;5.73;;;1.57;;
71351;SDS011;59159;51.652;4.864;2023-03-21T05:25:16;5.10;;;1.50;;
71351;SDS011;59159;51.652;4.864;2023-03-21T05:27:45;7.10;;;1.40;;
71351;SDS011;59159;51.652;4.864;2023-03-21T05:30:18;6.23;;;1.90;;
71351;SDS011;59159;51.652;4.864;2023-03-21T05:32:44;6.93;;;1.50;;
71351;SDS011;59159;51.652;4.864;2023-03-21T05:35:10;4.65;;;1.30;;
71351;SDS011;59159;51.652;4.864;2023-03-21T05:37:36;5.32;;;1.40;;
71351;SDS011;59159;51.652;4.864;2023-03-21T05:40:03;5.20;;;2.00;;
71351;SDS011;59159;51.652;4.864;2023-03-21T05:42:30;5.53;;;1.35;;
71351;SDS011;59159;51.652;4.864;2023-03-21T05:44:56;4.47;;;1.33;;
71351;SDS011;59159;51.652;4.864;2023-03-21T05:47:22;5.37;;;1.47;;
71351;SDS011;59159;51.652;4.864;2023-03-21T05:49:48;4.35;;;1.20;;
71351;SDS011;59159;51.652;4.864;2023-03-21T05:52:15;5.53;;;1.70;;
71351;SDS011;59159;51.652;4.864;2023-03-21T05:54:41;5.80;;;1.60;;
71351;SDS011;59159;51.652;4.864;2023-03-21T05:57:07;5.35;;;1.35;;
71351;SDS011;59159;51.652;4.864;2023-03-21T05:59:33;10.90;;;1.50;;
71351;SDS011;59159;51.652;4.864;2023-03-21T06:01:59;6.90;;;1.63;;
71351;SDS011;59159;51.652;4.864;2023-03-21T06:04:25;5.33;;;1.40;;
71351;SDS011;59159;51.652;4.864;2023-03-21T06:06:51;4.70;;;1.42;;
71351;SDS011;59159;51.652;4.864;2023-03-21T06:09:18;5.95;;;1.30;;
71351;SDS011;59159;51.652;4.864;2023-03-21T06:11:49;6.47;;;1.30;;
71351;SDS011;59159;51.652;4.864;2023-03-21T06:14:15;4.80;;;1.25;;
71351;SDS011;59159;51.652;4.864;2023-03-21T06:16:41;4.80;;;1.45;;
71351;SDS011;59159;51.652;4.864;2023-03-21T06:19:07;4.30;;;1.40;;
71351;SDS011;59159;51.652;4.864;2023-03-21T06:21:33;6.05;;;1.63;;
71351;SDS011;59159;51.652;4.864;2023-03-21T06:23:59;5.28;;;1.40;;
71351;SDS011;59159;51.652;4.864;2023-03-21T06:26:26;5.18;;;1.30;;
71351;SDS011;59159;51.652;4.864;2023-03-21T06:31:27;5.50;;;1.30;;
71351;SDS011;59159;51.652;4.864;2023-03-21T06:33:53;5.88;;;1.30;;
71351;SDS011;59159;51.652;4.864;2023-03-21T06:36:20;5.63;;;1.40;;
71351;SDS011;59159;51.652;4.864;2023-03-21T06:38:46;4.50;;;1.13;;
71351;SDS011;59159;51.652;4.864;2023-03-21T06:41:12;4.90;;;1.20;;
71351;SDS011;59159;51.652;4.864;2023-03-21T06:43:38;6.23;;;1.40;;
71351;SDS011;59159;51.652;4.864;2023-03-21T06:46:05;6.00;;;1.10;;
71351;SDS011;59159;51.652;4.864;2023-03-21T06:48:31;3.60;;;1.00;;
71351;SDS011;59159;51.652;4.864;2023-03-21T06:50:57;4.78;;;1.30;;
71351;SDS011;59159;51.652;4.864;2023-03-21T06:53:23;7.57;;;1.27;;
71351;SDS011;59159;51.652;4.864;2023-03-21T06:55:54;5.82;;;1.30;;
71351;SDS011;59159;51.652;4.864;2023-03-21T06:58:20;4.60;;;1.10;;
71351;SDS011;59159;51.652;4.864;2023-03-21T07:00:47;3.67;;;0.97;;
71351;SDS011;59159;51.652;4.864;2023-03-21T07:03:13;5.15;;;1.40;;
71351;SDS011;59159;51.652;4.864;2023-03-21T07:05:39;5.80;;;1.17;;
71351;SDS011;59159;51.652;4.864;2023-03-21T07:08:05;5.87;;;1.60;;
71351;SDS011;59159;51.652;4.864;2023-03-21T07:10:36;4.50;;;1.27;;
71351;SDS011;59159;51.652;4.864;2023-03-21T07:13:02;5.20;;;1.25;;
71351;SDS011;59159;51.652;4.864;2023-03-21T07:15:28;5.50;;;1.48;;
71351;SDS011;59159;51.652;4.864;2023-03-21T07:17:55;4.43;;;1.00;;
71351;SDS011;59159;51.652;4.864;2023-03-21T07:20:21;5.18;;;1.33;;
71351;SDS011;59159;51.652;4.864;2023-03-21T07:22:47;4.72;;;1.10;;
71351;SDS011;59159;51.652;4.864;2023-03-21T07:25:13;4.13;;;1.10;;
71351;SDS011;59159;51.652;4.864;2023-03-21T07:27:41;4.47;;;1.30;;
71351;SDS011;59159;51.652;4.864;2023-03-21T07:30:09;4.22;;;1.10;;
71351;SDS011;59159;51.652;4.864;2023-03-21T07:32:35;3.87;;;1.07;;
71351;SDS011;59159;51.652;4.864;2023-03-21T07:35:02;4.90;;;1.40;;
71351;SDS011;59159;51.652;4.864;2023-03-21T07:37:28;5.25;;;1.20;;
71351;SDS011;59159;51.652;4.864;2023-03-21T07:39:54;4.10;;;1.20;;
71351;SDS011;59159;51.652;4.864;2023-03-21T07:42:20;5.10;;;1.17;;
71351;SDS011;59159;51.652;4.864;2023-03-21T07:44:46;6.47;;;1.63;;
71351;SDS011;59159;51.652;4.864;2023-03-21T07:47:18;4.35;;;1.13;;
71351;SDS011;59159;51.652;4.864;2023-03-21T07:49:45;3.97;;;1.10;;
71351;SDS011;59159;51.652;4.864;2023-03-21T07:52:11;5.43;;;1.30;;
71351;SDS011;59159;51.652;4.864;2023-03-21T07:54:37;5.30;;;1.10;;
71351;SDS011;59159;51.652;4.864;2023-03-21T07:57:03;5.47;;;1.20;;
71351;SDS011;59159;51.652;4.864;2023-03-21T07:59:29;4.10;;;0.90;;
71351;SDS011;59159;51.652;4.864;2023-03-21T08:01:55;5.32;;;1.50;;
71351;SDS011;59159;51.652;4.864;2023-03-21T08:06:52;4.40;;;1.30;;
71351;SDS011;59159;51.652;4.864;2023-03-21T08:09:18;6.00;;;1.27;;
71351;SDS011;59159;51.652;4.864;2023-03-21T08:11:44;4.85;;;1.20;;
71351;SDS011;59159;51.652;4.864;2023-03-21T08:14:10;5.00;;;1.10;;
71351;SDS011;59159;51.652;4.864;2023-03-21T08:16:36;4.25;;;1.30;;
71351;SDS011;59159;51.652;4.864;2023-03-21T08:19:04;4.80;;;1.55;;
71351;SDS011;59159;51.652;4.864;2023-03-21T08:21:30;5.57;;;1.60;;
71351;SDS011;59159;51.652;4.864;2023-03-21T08:23:56;4.97;;;1.20;;
71351;SDS011;59159;51.652;4.864;2023-03-21T08:26:22;5.05;;;1.50;;
71351;SDS011;59159;51.652;4.864;2023-03-21T08:28:50;5.63;;;1.50;;
71351;SDS011;59159;51.652;4.864;2023-03-21T08:31:16;4.80;;;1.50;;
71351;SDS011;59159;51.652;4.864;2023-03-21T08:33:42;3.85;;;0.85;;
71351;SDS011;59159;51.652;4.864;2023-03-21T08:36:09;5.15;;;1.30;;
71351;SDS011;59159;51.652;4.864;2023-03-21T08:38:35;6.27;;;1.40;;
71351;SDS011;59159;51.652;4.864;2023-03-21T08:41:01;5.63;;;1.30;;
71351;SDS011;59159;51.652;4.864;2023-03-21T08:43:28;5.13;;;1.40;;
71351;SDS011;59159;51.652;4.864;2023-03-21T08:45:54;6.37;;;2.13;;
71351;SDS011;59159;51.652;4.864;2023-03-21T08:48:21;4.43;;;1.15;;
71351;SDS011;59159;51.652;4.864;2023-03-21T08:50:47;4.68;;;1.10;;
71351;SDS011;59159;51.652;4.864;2023-03-21T08:53:13;5.13;;;1.30;;
71351;SDS011;59159;51.652;4.864;2023-03-21T08:55:40;3.87;;;1.23;;
71351;SDS011;59159;51.652;4.864;2023-03-21T08:58:06;5.55;;;1.42;;
71351;SDS011;59159;51.652;4.864;2023-03-21T09:00:32;4.28;;;1.00;;
71351;SDS011;59159;51.652;4.864;2023-03-21T09:02:58;4.70;;;1.10;;
71351;SDS011;59159;51.652;4.864;2023-03-21T09:05:24;4.90;;;1.05;;
71351;SDS011;59159;51.652;4.864;2023-03-21T09:07:51;5.03;;;1.10;;
71351;SDS011;59159;51.652;4.864;2023-03-21T09:10:18;3.93;;;1.40;;
71351;SDS011;59159;51.652;4.864;2023-03-21T09:12:45;4.30;;;1.20;;
71351;SDS011;59159;51.652;4.864;2023-03-21T09:15:11;5.00;;;1.20;;
71351;SDS011;59159;51.652;4.864;2023-03-21T09:17:38;4.93;;;1.33;;
71351;SDS011;59159;51.652;4.864;2023-03-21T09:20:09;5.90;;;1.30;;
71351;SDS011;59159;51.652;4.864;2023-03-21T09:22:42;4.53;;;1.38;;
71351;SDS011;59159;51.652;4.864;2023-03-21T09:25:08;4.10;;;1.05;;
71351;SDS011;59159;51.652;4.864;2023-03-21T09:27:35;5.17;;;1.20;;
71351;SDS011;59159;51.652;4.864;2023-03-21T09:30:01;4.82;;;1.15;;
71351;SDS011;59159;51.652;4.864;2023-03-21T09:32:30;5.38;;;1.20;;
71351;SDS011;59159;51.652;4.864;2023-03-21T09:34:56;5.17;;;1.20;;
71351;SDS011;59159;51.652;4.864;2023-03-21T09:37:23;4.30;;;1.00;;
71351;SDS011;59159;51.652;4.864;2023-03-21T09:39:49;4.40;;;1.23;;
71351;SDS011;59159;51.652;4.864;2023-03-21T09:42:31;4.70;;;1.23;;
71351;SDS011;59159;51.652;4.864;2023-03-21T09:45:15;5.40;;;1.20;;
71351;SDS011;59159;51.652;4.864;2023-03-21T09:47:46;3.78;;;1.10;;
71351;SDS011;59159;51.652;4.864;2023-03-21T09:50:19;4.18;;;0.95;;
71351;SDS011;59159;51.652;4.864;2023-03-21T09:53:00;5.80;;;1.37;;
71351;SDS011;59159;51.652;4.864;2023-03-21T09:55:30;4.80;;;1.20;;
71351;SDS011;59159;51.652;4.864;2023-03-21T09:58:01;3.92;;;1.00;;
71351;SDS011;59159;51.652;4.864;2023-03-21T10:00:32;4.37;;;0.97;;
71351;SDS011;59159;51.652;4.864;2023-03-21T10:03:00;4.70;;;1.20;;
71351;SDS011;59159;51.652;4.864;2023-03-21T10:05:31;4.03;;;1.17;;
71351;SDS011;59159;51.652;4.864;2023-03-21T10:10:31;5.13;;;1.27;;
71351;SDS011;59159;51.652;4.864;2023-03-21T10:12:57;3.95;;;1.13;;
71351;SDS011;59159;51.652;4.864;2023-03-21T10:15:24;5.95;;;1.73;;
71351;SDS011;59159;51.652;4.864;2023-03-21T10:17:53;5.87;;;1.50;;
71351;SDS011;59159;51.652;4.864;2023-03-21T10:20:29;3.42;;;0.98;;
71351;SDS011;59159;51.652;4.864;2023-03-21T10:22:55;4.20;;;0.80;;
71351;SDS011;59159;51.652;4.864;2023-03-21T10:25:27;4.63;;;1.13;;
71351;SDS011;59159;51.652;4.864;2023-03-21T10:27:54;4.72;;;1.92;;
71351;SDS011;59159;51.652;4.864;2023-03-21T10:30:29;3.85;;;1.02;;
71351;SDS011;59159;51.652;4.864;2023-03-21T10:32:58;4.10;;;1.02;;
71351;SDS011;59159;51.652;4.864;2023-03-21T10:35:28;3.80;;;1.10;;
71351;SDS011;59159;51.652;4.864;2023-03-21T10:37:57;3.55;;;1.13;;
71351;SDS011;59159;51.652;4.864;2023-03-21T10:40:23;3.47;;;1.00;;
71351;SDS011;59159;51.652;4.864;2023-03-21T10:42:49;4.43;;;1.00;;
71351;SDS011;59159;51.652;4.864;2023-03-21T10:45:17;4.40;;;1.20;;
71351;SDS011;59159;51.652;4.864;2023-03-21T10:47:46;4.38;;;1.27;;
71351;SDS011;59159;51.652;4.864;2023-03-21T10:50:14;3.60;;;1.00;;
71351;SDS011;59159;51.652;4.864;2023-03-21T10:52:42;5.78;;;1.10;;
71351;SDS011;59159;51.652;4.864;2023-03-21T10:57:55;4.13;;;0.88;;
71351;SDS011;59159;51.652;4.864;2023-03-21T11:00:24;3.20;;;0.90;;
71351;SDS011;59159;51.652;4.864;2023-03-21T11:02:50;4.47;;;1.30;;
71351;SDS011;59159;51.652;4.864;2023-03-21T11:07:49;3.30;;;1.00;;
71351;SDS011;59159;51.652;4.864;2023-03-21T11:10:31;4.35;;;1.00;;
71351;SDS011;59159;51.652;4.864;2023-03-21T11:13:00;3.90;;;1.00;;
71351;SDS011;59159;51.652;4.864;2023-03-21T11:20:50;4.32;;;1.38;;
71351;SDS011;59159;51.652;4.864;2023-03-21T11:23:17;2.78;;;0.90;;
71351;SDS011;59159;51.652;4.864;2023-03-21T11:25:48;3.77;;;1.10;;
71351;SDS011;59159;51.652;4.864;2023-03-21T11:28:19;4.10;;;1.05;;
71351;SDS011;59159;51.652;4.864;2023-03-21T11:30:58;5.50;;;1.83;;
71351;SDS011;59159;51.652;4.864;2023-03-21T11:33:26;4.23;;;1.20;;
71351;SDS011;59159;51.652;4.864;2023-03-21T11:38:26;3.67;;;0.98;;
71351;SDS011;59159;51.652;4.864;2023-03-21T11:40:52;4.43;;;1.17;;
71351;SDS011;59159;51.652;4.864;2023-03-21T11:43:26;4.63;;;1.20;;
71351;SDS011;59159;51.652;4.864;2023-03-21T11:45:56;3.83;;;0.82;;
71351;SDS011;59159;51.652;4.864;2023-03-21T11:48:23;4.85;;;1.20;;
71351;SDS011;59159;51.652;4.864;2023-03-21T11:50:50;3.80;;;1.13;;
71351;SDS011;59159;51.652;4.864;2023-03-21T11:53:36;4.63;;;1.10;;
71351;SDS011;59159;51.652;4.864;2023-03-21T12:04:32;4.68;;;1.27;;
71351;SDS011;59159;51.652;4.864;2023-03-21T12:07:03;4.60;;;1.17;;
71351;SDS011;59159;51.652;4.864;2023-03-21T12:09:37;4.32;;;1.33;;
71351;SDS011;59159;51.652;4.864;2023-03-21T12:17:26;3.50;;;1.10;;
71351;SDS011;59159;51.652;4.864;2023-03-21T12:22:27;3.60;;;1.10;;
71351;SDS011;59159;51.652;4.864;2023-03-21T12:24:58;4.37;;;1.00;;
71351;SDS011;59159;51.652;4.864;2023-03-21T12:30:13;4.10;;;1.30;;
71351;SDS011;59159;51.652;4.864;2023-03-21T12:32:50;4.87;;;1.20;;
71351;SDS011;59159;51.652;4.864;2023-03-21T12:35:31;4.05;;;1.25;;
71351;SDS011;59159;51.652;4.864;2023-03-21T12:38:01;5.72;;;1.30;;
71351;SDS011;59159;51.652;4.864;2023-03-21T12:45:43;3.60;;;0.98;;
71351;SDS011;59159;51.652;4.864;2023-03-21T12:48:14;3.75;;;1.05;;
71351;SDS011;59159;51.652;4.864;2023-03-21T12:50:42;3.53;;;1.20;;
71351;SDS011;59159;51.652;4.864;2023-03-21T12:55:55;6.35;;;1.15;;
71351;SDS011;59159;51.652;4.864;2023-03-21T12:58:24;4.13;;;1.00;;
71351;SDS011;59159;51.652;4.864;2023-03-21T13:00:53;3.63;;;1.05;;
71351;SDS011;59159;51.652;4.864;2023-03-21T13:03:22;3.97;;;1.20;;
71351;SDS011;59159;51.652;4.864;2023-03-21T13:05:51;4.35;;;1.10;;
71351;SDS011;59159;51.652;4.864;2023-03-21T13:08:27;5.20;;;1.83;;
71351;SDS011;59159;51.652;4.864;2023-03-21T13:10:55;4.32;;;1.20;;
71351;SDS011;59159;51.652;4.864;2023-03-21T13:13:35;3.78;;;1.10;;
71351;SDS011;59159;51.652;4.864;2023-03-21T13:21:20;3.30;;;1.05;;
71351;SDS011;59159;51.652;4.864;2023-03-21T13:26:31;5.07;;;1.35;;
71351;SDS011;59159;51.652;4.864;2023-03-21T13:28:58;4.35;;;1.20;;
71351;SDS011;59159;51.652;4.864;2023-03-21T13:31:24;3.75;;;1.33;;
71351;SDS011;59159;51.652;4.864;2023-03-21T13:33:52;4.50;;;1.20;;
71351;SDS011;59159;51.652;4.864;2023-03-21T13:36:23;4.25;;;1.42;;
71351;SDS011;59159;51.652;4.864;2023-03-21T13:38:51;5.10;;;1.25;;
71351;SDS011;59159;51.652;4.864;2023-03-21T13:41:20;5.07;;;1.43;;
71351;SDS011;59159;51.652;4.864;2023-03-21T13:43:54;7.75;;;1.45;;
71351;SDS011;59159;51.652;4.864;2023-03-21T13:49:01;4.77;;;1.20;;
71351;SDS011;59159;51.652;4.864;2023-03-21T13:56:25;3.60;;;0.90;;
71351;SDS011;59159;51.652;4.864;2023-03-21T13:59:01;4.63;;;0.93;;
71351;SDS011;59159;51.652;4.864;2023-03-21T14:01:41;3.97;;;1.33;;
71351;SDS011;59159;51.652;4.864;2023-03-21T14:04:26;4.45;;;1.60;;
71351;SDS011;59159;51.652;4.864;2023-03-21T14:07:01;4.13;;;1.10;;
71351;SDS011;59159;51.652;4.864;2023-03-21T14:09:38;4.30;;;1.27;;
71351;SDS011;59159;51.652;4.864;2023-03-21T14:12:06;4.80;;;1.27;;
71351;SDS011;59159;51.652;4.864;2023-03-21T14:14:37;3.67;;;1.23;;
71351;SDS011;59159;51.652;4.864;2023-03-21T14:17:19;4.03;;;1.30;;
71351;SDS011;59159;51.652;4.864;2023-03-21T14:19:50;3.63;;;1.08;;
71351;SDS011;59159;51.652;4.864;2023-03-21T14:22:16;4.25;;;1.10;;
71351;SDS011;59159;51.652;4.864;2023-03-21T14:24:46;4.07;;;1.23;;
71351;SDS011;59159;51.652;4.864;2023-03-21T14:27:12;3.88;;;1.60;;
71351;SDS011;59159;51.652;4.864;2023-03-21T14:29:38;5.10;;;1.20;;
71351;SDS011;59159;51.652;4.864;2023-03-21T14:32:04;3.97;;;1.77;;
71351;SDS011;59159;51.652;4.864;2023-03-21T14:34:31;3.45;;;1.13;;
71351;SDS011;59159;51.652;4.864;2023-03-21T14:36:58;6.60;;;1.85;;
71351;SDS011;59159;51.652;4.864;2023-03-21T14:39:32;5.60;;;2.37;;
71351;SDS011;59159;51.652;4.864;2023-03-21T14:42:02;5.25;;;2.00;;
71351;SDS011;59159;51.652;4.864;2023-03-21T14:44:33;5.53;;;2.08;;
71351;SDS011;59159;51.652;4.864;2023-03-21T14:47:07;5.18;;;1.75;;
71351;SDS011;59159;51.652;4.864;2023-03-21T14:49:41;7.70;;;2.23;;
71351;SDS011;59159;51.652;4.864;2023-03-21T14:52:15;7.40;;;2.17;;
71351;SDS011;59159;51.652;4.864;2023-03-21T14:54:43;7.70;;;2.08;;
71351;SDS011;59159;51.652;4.864;2023-03-21T14:57:10;6.90;;;2.30;;
71351;SDS011;59159;51.652;4.864;2023-03-21T14:59:38;7.40;;;2.45;;
71351;SDS011;59159;51.652;4.864;2023-03-21T15:02:12;6.15;;;2.17;;
71351;SDS011;59159;51.652;4.864;2023-03-21T15:04:40;8.60;;;2.80;;
71351;SDS011;59159;51.652;4.864;2023-03-21T15:07:21;6.25;;;2.20;;
71351;SDS011;59159;51.652;4.864;2023-03-21T15:09:51;10.20;;;2.65;;
71351;SDS011;59159;51.652;4.864;2023-03-21T15:12:18;7.70;;;2.45;;
71351;SDS011;59159;51.652;4.864;2023-03-21T15:14:44;11.77;;;3.40;;
71351;SDS011;59159;51.652;4.864;2023-03-21T15:17:10;6.38;;;2.03;;
71351;SDS011;59159;51.652;4.864;2023-03-21T15:19:37;4.65;;;1.67;;
71351;SDS011;59159;51.652;4.864;2023-03-21T15:24:55;8.50;;;1.92;;
71351;SDS011;59159;51.652;4.864;2023-03-21T15:27:23;4.95;;;1.92;;
71351;SDS011;59159;51.652;4.864;2023-03-21T15:29:50;6.30;;;1.80;;
71351;SDS011;59159;51.652;4.864;2023-03-21T15:32:23;5.80;;;1.85;;
71351;SDS011;59159;51.652;4.864;2023-03-21T15:34:51;6.13;;;1.50;;
71351;SDS011;59159;51.652;4.864;2023-03-21T15:37:25;5.75;;;1.98;;
71351;SDS011;59159;51.652;4.864;2023-03-21T15:39:52;17.67;;;8.60;;
71351;SDS011;59159;51.652;4.864;2023-03-21T15:42:29;12.68;;;5.55;;
71351;SDS011;59159;51.652;4.864;2023-03-21T15:44:59;10.13;;;4.40;;
71351;SDS011;59159;51.652;4.864;2023-03-21T15:50:16;14.75;;;5.75;;
71351;SDS011;59159;51.652;4.864;2023-03-21T15:52:47;10.25;;;4.35;;
71351;SDS011;59159;51.652;4.864;2023-03-21T15:55:17;12.20;;;4.10;;
71351;SDS011;59159;51.652;4.864;2023-03-21T15:57:46;11.60;;;3.83;;
71351;SDS011;59159;51.652;4.864;2023-03-21T16:00:20;9.60;;;3.75;;
71351;SDS011;59159;51.652;4.864;2023-03-21T16:02:46;8.30;;;3.55;;
71351;SDS011;59159;51.652;4.864;2023-03-21T16:07:43;9.23;;;3.70;;
71351;SDS011;59159;51.652;4.864;2023-03-21T16:10:13;10.27;;;3.53;;
71351;SDS011;59159;51.652;4.864;2023-03-21T16:12:47;10.23;;;2.90;;
71351;SDS011;59159;51.652;4.864;2023-03-21T16:15:13;7.82;;;2.97;;
71351;SDS011;59159;51.652;4.864;2023-03-21T16:17:45;8.40;;;3.05;;
71351;SDS011;59159;51.652;4.864;2023-03-21T16:20:16;7.77;;;2.77;;
71351;SDS011;59159;51.652;4.864;2023-03-21T16:22:44;8.48;;;2.83;;
71351;SDS011;59159;51.652;4.864;2023-03-21T16:25:10;10.52;;;3.08;;
71351;SDS011;59159;51.652;4.864;2023-03-21T16:27:36;8.52;;;2.67;;
71351;SDS011;59159;51.652;4.864;2023-03-21T16:30:02;7.97;;;2.80;;
71351;SDS011;59159;51.652;4.864;2023-03-21T16:32:28;6.38;;;2.30;;
71351;SDS011;59159;51.652;4.864;2023-03-21T16:34:55;6.40;;;2.05;;
71351;SDS011;59159;51.652;4.864;2023-03-21T16:37:21;7.10;;;2.50;;
71351;SDS011;59159;51.652;4.864;2023-03-21T16:39:47;8.35;;;2.95;;
71351;SDS011;59159;51.652;4.864;2023-03-21T16:42:13;7.32;;;2.60;;
71351;SDS011;59159;51.652;4.864;2023-03-21T16:44:39;6.10;;;2.20;;